createdAt,value
2023-03-03T00:00:48.347Z,4.50
2023-03-03T00:03:24.243Z,4.60
2023-03-03T00:05:51.827Z,4.60
2023-03-03T00:08:20.527Z,4.60
2023-03-03T00:10:47.622Z,4.80
2023-03-03T00:13:24.464Z,4.70
2023-03-03T00:15:52.386Z,4.80
2023-03-03T00:18:50.915Z,4.70
2023-03-03T00:21:29.367Z,4.70
2023-03-03T00:24:17.036Z,4.60
2023-03-03T00:27:01.226Z,4.80
2023-03-03T00:29:37.893Z,4.80
2023-03-03T00:32:27.869Z,4.60
2023-03-03T00:34:57.024Z,4.50
2023-03-03T00:37:35.589Z,4.40
2023-03-03T00:40:33.641Z,4.50
2023-03-03T00:43:01.337Z,4.50
2023-03-03T00:45:52.357Z,4.30
2023-03-03T00:48:27.940Z,4.40
2023-03-03T00:51:02.626Z,4.30
2023-03-03T00:53:30.865Z,4.30
2023-03-03T00:55:58.427Z,4.60
2023-03-03T00:58:25.905Z,4.50
2023-03-03T01:00:56.491Z,4.60
2023-03-03T01:03:25.643Z,4.80
2023-03-03T01:05:53.705Z,4.70
2023-03-03T01:08:22.206Z,4.80
2023-03-03T01:10:56.526Z,4.90
2023-03-03T01:13:30.940Z,4.60
2023-03-03T01:15:59.109Z,4.60
2023-03-03T01:18:27.270Z,4.50
2023-03-03T01:20:54.079Z,4.70
2023-03-03T01:23:20.862Z,4.60
2023-03-03T01:25:47.634Z,4.70
2023-03-03T01:28:14.391Z,4.60
2023-03-03T01:30:41.254Z,4.50
2023-03-03T01:33:08.052Z,4.50
2023-03-03T01:35:36.485Z,4.40
2023-03-03T01:38:03.669Z,4.30
2023-03-03T01:40:31.613Z,4.30
2023-03-03T01:43:01.012Z,4.40
2023-03-03T01:46:04.812Z,4.40
2023-03-03T01:48:38.812Z,4.30
2023-03-03T01:51:20.407Z,4.10
2023-03-03T01:53:51.132Z,4.10
2023-03-03T01:56:18.397Z,4.00
2023-03-03T01:59:06.538Z,4.00
2023-03-03T02:01:34.273Z,3.80
2023-03-03T02:04:01.575Z,3.80
2023-03-03T02:06:35.584Z,3.80
2023-03-03T02:09:41.232Z,3.80
2023-03-03T02:12:12.064Z,3.90
2023-03-03T02:14:38.927Z,3.80
2023-03-03T02:17:05.936Z,3.70
2023-03-03T02:20:14.366Z,3.70
2023-03-03T02:22:55.432Z,3.60
2023-03-03T02:25:41.803Z,3.80
2023-03-03T02:28:08.693Z,3.80
2023-03-03T02:30:39.457Z,3.90
2023-03-03T02:33:08.225Z,3.70
2023-03-03T02:35:42.476Z,3.80
2023-03-03T02:38:37.708Z,3.70
2023-03-03T02:41:35.558Z,3.80
2023-03-03T02:44:07.213Z,4.10
2023-03-03T02:46:37.446Z,4.20
2023-03-03T02:49:06.225Z,4.10
2023-03-03T02:51:33.333Z,4.30
2023-03-03T02:54:00.316Z,4.20
2023-03-03T02:56:27.439Z,4.30
2023-03-03T02:58:54.275Z,4.30
2023-03-03T03:01:21.895Z,4.30
2023-03-03T03:03:48.829Z,4.10
2023-03-03T03:06:15.752Z,4.00
2023-03-03T03:08:42.696Z,3.90
2023-03-03T03:11:09.561Z,4.00
2023-03-03T03:13:36.398Z,3.90
2023-03-03T03:16:03.292Z,3.90
2023-03-03T03:18:30.061Z,4.00
2023-03-03T03:20:56.866Z,4.00
2023-03-03T03:23:23.642Z,4.10
2023-03-03T03:25:50.492Z,4.30
2023-03-03T03:28:18.847Z,4.40
2023-03-03T03:30:45.876Z,4.50
2023-03-03T03:33:12.751Z,4.40
2023-03-03T03:35:45.403Z,4.20
2023-03-03T03:38:14.251Z,4.40
2023-03-03T03:40:41.271Z,4.30
2023-03-03T03:43:08.480Z,4.20
2023-03-03T03:45:35.321Z,4.10
2023-03-03T03:48:02.117Z,4.30
2023-03-03T03:50:28.911Z,4.30
2023-03-03T03:52:55.707Z,4.30
2023-03-03T03:55:22.736Z,4.50
2023-03-03T03:57:49.510Z,4.50
2023-03-03T04:00:17.047Z,4.30
2023-03-03T04:02:44.191Z,4.50
2023-03-03T04:05:11.112Z,4.70
2023-03-03T04:07:37.893Z,4.50
2023-03-03T04:10:05.375Z,4.50
2023-03-03T04:12:38.236Z,4.50
2023-03-03T04:15:08.399Z,4.90
2023-03-03T04:17:35.533Z,4.60
2023-03-03T04:20:03.291Z,5.10
2023-03-03T04:22:33.867Z,5.00
2023-03-03T04:25:05.026Z,5.20
2023-03-03T04:27:33.474Z,5.30
2023-03-03T04:30:00.553Z,5.40
2023-03-03T04:32:27.319Z,5.30
2023-03-03T04:35:05.758Z,5.00
2023-03-03T04:37:34.733Z,5.10
2023-03-03T04:40:01.541Z,4.70
2023-03-03T04:42:28.817Z,4.70
2023-03-03T04:44:55.573Z,4.60
2023-03-03T04:47:22.380Z,4.70
2023-03-03T04:49:49.183Z,4.50
2023-03-03T04:52:16.033Z,4.70
2023-03-03T04:54:42.900Z,4.80
2023-03-03T04:57:09.753Z,4.80
2023-03-03T04:59:36.935Z,5.00
2023-03-03T05:02:05.305Z,4.80
2023-03-03T05:04:33.165Z,4.70
2023-03-03T05:07:00.092Z,4.70
2023-03-03T05:09:27.333Z,4.70
2023-03-03T05:11:54.499Z,5.00
2023-03-03T05:14:21.317Z,5.00
2023-03-03T05:16:48.301Z,5.00
2023-03-03T05:19:15.103Z,5.10
2023-03-03T05:21:42.389Z,5.00
2023-03-03T05:24:11.211Z,4.80
2023-03-03T05:26:38.598Z,5.00
2023-03-03T05:29:06.598Z,4.70
2023-03-03T05:31:33.596Z,5.10
2023-03-03T05:34:00.379Z,5.30
2023-03-03T05:36:27.218Z,5.50
2023-03-03T05:38:53.985Z,5.40
2023-03-03T05:41:20.839Z,5.60
2023-03-03T05:43:47.807Z,5.70
2023-03-03T05:46:14.980Z,5.60
2023-03-03T05:48:42.120Z,5.60
2023-03-03T05:51:08.982Z,5.80
2023-03-03T05:53:35.819Z,5.70
2023-03-03T05:56:02.791Z,5.80
2023-03-03T05:58:30.272Z,5.90
2023-03-03T06:00:57.038Z,6.00
2023-03-03T06:03:23.830Z,6.00
2023-03-03T06:05:50.602Z,6.00
2023-03-03T06:08:17.394Z,6.00
2023-03-03T06:10:44.268Z,6.00
2023-03-03T06:13:11.045Z,5.90
2023-03-03T06:15:38.088Z,6.10
2023-03-03T06:18:05.213Z,6.10
2023-03-03T06:20:33.073Z,6.10
2023-03-03T06:22:59.838Z,6.10
2023-03-03T06:25:26.773Z,6.10
2023-03-03T06:27:53.868Z,5.90
2023-03-03T06:30:21.050Z,6.00
2023-03-03T06:32:47.959Z,6.10
2023-03-03T06:35:14.795Z,6.30
2023-03-03T06:37:41.560Z,6.10
2023-03-03T06:40:09.458Z,6.00
2023-03-03T06:42:36.231Z,6.00
2023-03-03T06:45:03.153Z,6.20
2023-03-03T06:47:29.945Z,6.30
2023-03-03T06:49:56.716Z,6.10
2023-03-03T06:52:26.475Z,6.10
2023-03-03T06:55:00.999Z,6.10
2023-03-03T06:57:33.541Z,6.40
2023-03-03T07:00:24.079Z,6.50
2023-03-03T07:03:19.357Z,6.30
2023-03-03T07:05:46.287Z,6.20
2023-03-03T07:08:19.529Z,6.00
2023-03-03T07:10:47.609Z,6.10
2023-03-03T07:13:27.210Z,6.00
2023-03-03T07:15:56.671Z,6.10
2023-03-03T07:18:55.757Z,6.20
2023-03-03T07:21:33.756Z,6.10
2023-03-03T07:24:14.097Z,6.20
2023-03-03T07:26:40.855Z,6.30
2023-03-03T07:29:26.716Z,6.30
2023-03-03T07:31:59.182Z,6.30
2023-03-03T07:34:40.447Z,6.30
2023-03-03T07:37:36.097Z,6.20
2023-03-03T07:40:39.777Z,6.20
2023-03-03T07:43:36.479Z,6.10
2023-03-03T07:46:25.752Z,6.20
2023-03-03T07:48:53.114Z,6.20
2023-03-03T07:51:36.096Z,6.30
2023-03-03T07:54:28.320Z,6.20
2023-03-03T07:57:17.055Z,6.20
2023-03-03T08:00:00.507Z,6.20
2023-03-03T08:03:05.065Z,6.20
2023-03-03T08:05:36.738Z,6.10
2023-03-03T08:08:09.658Z,6.20
2023-03-03T08:10:51.339Z,6.20
2023-03-03T08:13:24.437Z,6.30
2023-03-03T08:15:58.259Z,6.50
2023-03-03T08:18:49.371Z,6.30
2023-03-03T08:21:23.474Z,6.80
2023-03-03T08:23:51.689Z,7.20
2023-03-03T08:26:20.480Z,6.90
2023-03-03T08:28:47.465Z,6.90
2023-03-03T08:31:24.954Z,6.60
2023-03-03T08:33:58.739Z,6.60
2023-03-03T08:36:25.505Z,6.60
2023-03-03T08:38:52.276Z,6.70
2023-03-03T08:41:19.035Z,6.60
2023-03-03T08:43:45.835Z,6.60
2023-03-03T08:46:12.719Z,6.70
2023-03-03T08:48:39.585Z,7.10
2023-03-03T08:51:07.605Z,7.10
2023-03-03T08:53:36.483Z,7.10
2023-03-03T08:56:04.680Z,7.30
2023-03-03T08:58:35.470Z,7.20
2023-03-03T09:01:02.870Z,7.10
2023-03-03T09:03:30.032Z,7.20
2023-03-03T09:05:56.902Z,7.20
2023-03-03T09:08:23.656Z,7.30
2023-03-03T09:10:50.730Z,7.40
2023-03-03T09:13:20.227Z,7.10
2023-03-03T09:15:49.160Z,7.40
2023-03-03T09:18:37.575Z,7.40
2023-03-03T09:21:24.313Z,7.60
2023-03-03T09:24:01.510Z,7.20
2023-03-03T09:26:45.971Z,7.20
2023-03-03T09:29:15.731Z,7.40
2023-03-03T09:31:45.802Z,7.10
2023-03-03T09:34:40.489Z,7.10
2023-03-03T09:37:34.345Z,7.30
2023-03-03T09:40:01.104Z,7.20
2023-03-03T09:42:42.929Z,7.30
2023-03-03T09:45:27.601Z,7.10
2023-03-03T09:48:16.095Z,7.20
2023-03-03T09:51:33.857Z,7.30
2023-03-03T09:54:39.827Z,7.40
2023-03-03T09:57:34.352Z,7.60
2023-03-03T10:01:08.366Z,7.80
2023-03-03T10:04:36.954Z,8.10
2023-03-03T10:07:42.857Z,8.00
2023-03-03T10:10:47.535Z,8.00
2023-03-03T10:13:55.085Z,8.50
2023-03-03T10:16:39.677Z,8.50
2023-03-03T10:19:28.079Z,8.30
2023-03-03T10:22:43.058Z,8.60
2023-03-03T10:25:42.460Z,8.60
2023-03-03T10:28:43.386Z,8.90
2023-03-03T10:31:36.266Z,8.80
2023-03-03T10:34:05.579Z,9.10
2023-03-03T10:37:06.304Z,8.80
2023-03-03T10:39:52.542Z,9.00
2023-03-03T10:42:48.894Z,9.00
2023-03-03T10:45:43.132Z,8.60
2023-03-03T10:48:45.504Z,8.70
2023-03-03T10:51:59.024Z,8.80
2023-03-03T10:54:43.796Z,8.80
2023-03-03T10:57:27.262Z,9.20
2023-03-03T11:00:25.275Z,9.10
2023-03-03T11:03:11.174Z,9.50
2023-03-03T11:05:50.691Z,9.60
2023-03-03T11:08:27.485Z,9.80
2023-03-03T11:11:35.707Z,9.30
2023-03-03T11:14:15.878Z,9.60
2023-03-03T11:17:46.980Z,9.20
2023-03-03T11:20:40.501Z,9.40
2023-03-03T11:23:30.820Z,9.90
2023-03-03T11:26:48.379Z,9.70
2023-03-03T11:30:10.168Z,9.70
2023-03-03T11:32:49.623Z,10.00
2023-03-03T11:35:39.280Z,9.40
2023-03-03T11:38:31.955Z,9.30
2023-03-03T11:41:19.664Z,9.30
2023-03-03T11:44:00.119Z,9.50
2023-03-03T11:46:39.114Z,9.60
2023-03-03T11:49:17.179Z,9.40
2023-03-03T11:51:54.946Z,10.00
2023-03-03T11:54:46.519Z,9.80
2023-03-03T11:57:36.344Z,9.80
2023-03-03T12:00:16.223Z,10.00
2023-03-03T12:03:12.064Z,9.80
2023-03-03T12:05:41.511Z,9.90
2023-03-03T12:08:53.706Z,10.30
2023-03-03T12:11:32.476Z,10.90
2023-03-03T12:14:48.138Z,11.10
2023-03-03T12:17:41.483Z,10.60
2023-03-03T12:20:51.465Z,11.10
2023-03-03T12:23:27.446Z,10.60
2023-03-03T12:33:49.943Z,11.10
2023-03-03T12:37:43.187Z,11.40
2023-03-03T12:40:35.094Z,11.10
2023-03-03T12:43:12.252Z,11.20
2023-03-03T12:45:55.356Z,11.00
2023-03-03T12:48:46.095Z,11.20
2023-03-03T12:51:18.604Z,11.30
2023-03-03T12:54:37.006Z,11.50
2023-03-03T12:57:22.057Z,11.60
2023-03-03T13:01:01.348Z,11.40
2023-03-03T13:04:05.916Z,11.30
2023-03-03T13:06:43.208Z,11.40
2023-03-03T13:09:32.578Z,10.80
2023-03-03T13:12:35.564Z,11.10
2023-03-03T13:15:31.755Z,10.70
2023-03-03T13:18:29.829Z,10.90
2023-03-03T13:21:12.920Z,11.20
2023-03-03T13:24:23.182Z,10.60
2023-03-03T13:27:06.204Z,10.90
2023-03-03T13:29:45.222Z,10.70
2023-03-03T13:32:22.622Z,10.30
2023-03-03T13:35:16.115Z,10.80
2023-03-03T13:37:47.151Z,10.80
2023-03-03T13:40:14.069Z,11.00
2023-03-03T13:42:54.467Z,11.00
2023-03-03T13:45:37.273Z,10.90
2023-03-03T13:48:28.445Z,10.70
2023-03-03T13:51:10.904Z,10.80
2023-03-03T13:54:10.303Z,10.60
2023-03-03T13:56:45.559Z,10.90
2023-03-03T13:59:35.579Z,11.20
2023-03-03T14:02:37.010Z,11.20
2023-03-03T14:05:09.483Z,10.70
2023-03-03T14:07:58.002Z,11.10
2023-03-03T14:10:32.709Z,11.60
2023-03-03T14:13:05.406Z,11.70
2023-03-03T14:15:57.177Z,11.90
2023-03-03T14:18:34.539Z,12.30
2023-03-03T14:21:12.388Z,12.30
2023-03-03T14:23:59.145Z,12.40
2023-03-03T14:26:26.336Z,12.30
2023-03-03T14:29:19.689Z,11.70
2023-03-03T14:31:46.551Z,11.30
2023-03-03T14:34:41.024Z,11.00
2023-03-03T14:37:24.895Z,11.20
2023-03-03T14:40:03.403Z,10.70
2023-03-03T14:42:35.940Z,11.00
2023-03-03T14:45:37.313Z,10.90
2023-03-03T14:48:29.227Z,11.20
2023-03-03T14:51:24.424Z,11.40
2023-03-03T14:53:52.097Z,11.50
2023-03-03T14:56:37.316Z,11.40
2023-03-03T14:59:21.280Z,12.20
2023-03-03T15:01:58.282Z,12.80
2023-03-03T15:04:28.410Z,13.00
2023-03-03T15:06:56.852Z,13.00
2023-03-03T15:09:38.457Z,13.20
2023-03-03T15:12:37.460Z,13.20
2023-03-03T15:15:09.457Z,12.60
2023-03-03T15:17:43.092Z,12.90
2023-03-03T15:20:37.927Z,13.50
2023-03-03T15:23:42.709Z,13.20
2023-03-03T15:26:51.450Z,13.70
2023-03-03T15:29:42.308Z,13.40
2023-03-03T15:32:56.330Z,13.10
2023-03-03T15:35:49.008Z,12.90
2023-03-03T15:38:27.227Z,12.50
2023-03-03T15:41:26.764Z,12.40
2023-03-03T15:44:18.200Z,12.10
2023-03-03T15:47:26.623Z,12.20
2023-03-03T15:50:22.962Z,12.20
2023-03-03T15:53:28.709Z,11.80
2023-03-03T15:56:11.029Z,11.70
2023-03-03T15:59:26.752Z,12.00
2023-03-03T16:02:15.577Z,12.30
2023-03-03T16:05:03.545Z,12.30
2023-03-03T16:08:08.766Z,12.30
2023-03-03T16:10:52.393Z,12.10
2023-03-03T16:14:01.342Z,12.20
2023-03-03T16:17:20.080Z,11.90
2023-03-03T16:20:05.665Z,11.70
2023-03-03T16:22:54.739Z,11.80
2023-03-03T16:25:27.315Z,11.30
2023-03-03T16:28:29.442Z,11.30
2023-03-03T16:31:21.648Z,11.00
2023-03-03T16:34:26.443Z,10.40
2023-03-03T16:37:20.845Z,10.20
2023-03-03T16:40:20.054Z,10.60
2023-03-03T16:42:49.637Z,10.60
2023-03-03T16:45:34.606Z,10.30
2023-03-03T16:48:15.213Z,10.50
2023-03-03T16:51:08.224Z,10.30
2023-03-03T16:54:02.036Z,10.40
2023-03-03T16:56:50.316Z,10.90
2023-03-03T16:59:42.815Z,11.10
2023-03-03T17:02:32.912Z,10.80
2023-03-03T17:05:12.614Z,10.70
2023-03-03T17:08:16.239Z,11.00
2023-03-03T17:10:51.476Z,10.90
2023-03-03T17:13:58.912Z,11.00
2023-03-03T17:16:55.803Z,11.00
2023-03-03T17:20:00.743Z,10.90
2023-03-03T17:22:46.326Z,10.80
2023-03-03T17:25:55.539Z,10.70
2023-03-03T17:28:30.456Z,10.80
2023-03-03T17:31:15.813Z,10.70
2023-03-03T17:34:22.625Z,10.30
2023-03-03T17:37:42.185Z,10.40
2023-03-03T17:40:27.205Z,10.30
2023-03-03T17:43:20.546Z,10.30
2023-03-03T17:45:52.699Z,9.70
2023-03-03T17:48:39.202Z,9.70
2023-03-03T17:51:23.718Z,9.60
2023-03-03T17:53:59.400Z,9.70
2023-03-03T17:56:29.628Z,9.50
2023-03-03T17:59:38.889Z,9.10
2023-03-03T18:02:36.222Z,9.20
2023-03-03T18:05:27.420Z,9.40
2023-03-03T18:08:03.212Z,9.10
2023-03-03T18:11:03.665Z,8.70
2023-03-03T18:13:56.737Z,8.70
2023-03-03T18:16:56.303Z,8.90
2023-03-03T18:20:17.268Z,8.90
2023-03-03T18:22:47.533Z,9.00
2023-03-03T18:25:17.024Z,8.90
2023-03-03T18:28:07.833Z,8.60
2023-03-03T18:30:57.146Z,8.30
2023-03-03T18:33:43.899Z,8.20
2023-03-03T18:36:33.648Z,8.00
2023-03-03T18:39:06.334Z,8.00
2023-03-03T18:42:04.842Z,8.20
2023-03-03T18:44:32.165Z,8.50
2023-03-03T18:46:59.055Z,8.30
2023-03-03T18:49:52.739Z,8.30
2023-03-03T18:52:31.673Z,8.40
2023-03-03T18:55:22.802Z,8.40
2023-03-03T18:58:27.311Z,8.50
2023-03-03T19:01:31.630Z,8.60
2023-03-03T19:04:18.900Z,8.70
2023-03-03T19:06:48.616Z,8.70
2023-03-03T19:09:58.271Z,8.50
2023-03-03T19:12:53.581Z,8.60
2023-03-03T19:15:35.944Z,8.70
2023-03-03T19:18:23.887Z,8.50
2023-03-03T19:21:04.029Z,8.90
2023-03-03T19:24:02.926Z,8.70
2023-03-03T19:26:47.956Z,9.10
2023-03-03T19:30:00.628Z,8.70
2023-03-03T19:33:05.440Z,8.20
2023-03-03T19:35:38.060Z,8.00
2023-03-03T19:38:34.374Z,8.40
2023-03-03T19:41:25.846Z,8.50
2023-03-03T19:43:55.576Z,8.80
2023-03-03T19:46:35.622Z,8.80
2023-03-03T19:49:33.159Z,8.70
2023-03-03T19:52:28.739Z,8.50
2023-03-03T19:55:30.667Z,8.20
2023-03-03T19:58:30.289Z,8.60
2023-03-03T20:01:40.198Z,8.60
2023-03-03T20:04:50.560Z,8.50
2023-03-03T20:07:31.221Z,8.70
2023-03-03T20:10:33.324Z,8.70
2023-03-03T20:13:20.803Z,8.10
2023-03-03T20:16:23.490Z,8.40
2023-03-03T20:19:06.922Z,8.50
2023-03-03T20:22:11.822Z,8.80
2023-03-03T20:25:07.424Z,8.80
2023-03-03T20:28:01.803Z,8.50
2023-03-03T20:31:02.256Z,8.50
2023-03-03T20:33:56.892Z,8.10
2023-03-03T20:37:07.392Z,8.40
2023-03-03T20:40:12.954Z,8.10
2023-03-03T20:43:45.313Z,8.20
2023-03-03T20:46:46.295Z,8.30
2023-03-03T20:49:57.175Z,8.40
2023-03-03T20:52:57.775Z,8.20
2023-03-03T20:56:26.444Z,7.90
2023-03-03T20:59:37.006Z,7.60
2023-03-03T21:03:17.547Z,7.90
2023-03-03T21:06:15.417Z,7.70
2023-03-03T21:09:03.485Z,7.50
2023-03-03T21:11:30.806Z,7.70
2023-03-03T21:14:26.365Z,7.50
2023-03-03T21:17:10.588Z,7.70
2023-03-03T21:19:39.166Z,7.70
2023-03-03T21:22:05.941Z,7.80
2023-03-03T21:24:53.424Z,8.10
2023-03-03T21:27:36.917Z,8.20
2023-03-03T21:30:12.341Z,7.70
2023-03-03T21:32:44.272Z,7.70
2023-03-03T21:35:12.185Z,7.90
2023-03-03T21:37:47.286Z,7.60
2023-03-03T21:40:23.278Z,7.90
2023-03-03T21:42:50.807Z,7.90
2023-03-03T21:45:20.464Z,7.80
2023-03-03T21:47:48.438Z,7.80
2023-03-03T21:50:16.302Z,7.90
2023-03-03T21:52:43.137Z,7.40
2023-03-03T21:55:10.346Z,7.80
2023-03-03T21:57:37.186Z,7.80
2023-03-03T22:00:09.196Z,7.80
2023-03-03T22:02:36.473Z,7.60
2023-03-03T22:05:03.890Z,7.50
2023-03-03T22:07:30.871Z,7.40
2023-03-03T22:09:57.640Z,7.50
2023-03-03T22:12:24.460Z,8.00
2023-03-03T22:14:51.238Z,8.10
2023-03-03T22:17:18.079Z,7.60
2023-03-03T22:19:44.819Z,7.70
2023-03-03T22:22:11.580Z,7.60
2023-03-03T22:24:38.337Z,7.60
2023-03-03T22:27:06.730Z,7.40
2023-03-03T22:29:34.346Z,7.40
2023-03-03T22:32:01.176Z,7.20
2023-03-03T22:34:28.112Z,7.40
2023-03-03T22:36:54.864Z,7.60
2023-03-03T22:39:21.612Z,7.80
2023-03-03T22:41:48.386Z,7.60
2023-03-03T22:44:15.150Z,7.80
2023-03-03T22:46:41.922Z,7.70
2023-03-03T22:49:08.788Z,7.70
2023-03-03T22:51:35.610Z,7.80
2023-03-03T22:54:02.380Z,7.60
2023-03-03T22:56:29.175Z,7.70
2023-03-03T22:58:55.948Z,7.50
2023-03-03T23:01:22.768Z,7.70
2023-03-03T23:03:50.407Z,7.70
2023-03-03T23:06:17.262Z,7.50
2023-03-03T23:08:44.035Z,7.20
2023-03-03T23:11:10.794Z,7.00
2023-03-03T23:13:37.580Z,7.30
2023-03-03T23:16:04.919Z,7.30
2023-03-03T23:18:31.700Z,7.30
2023-03-03T23:20:58.511Z,7.50
2023-03-03T23:23:25.299Z,7.40
2023-03-03T23:25:52.041Z,7.50
2023-03-03T23:28:19.296Z,7.70
2023-03-03T23:30:46.141Z,7.60
2023-03-03T23:33:13.022Z,7.70
2023-03-03T23:35:40.057Z,7.60
2023-03-03T23:38:07.028Z,7.60
2023-03-03T23:40:33.808Z,7.20
2023-03-03T23:43:00.567Z,7.30
2023-03-03T23:45:27.429Z,7.50
2023-03-03T23:47:54.226Z,7.20
2023-03-03T23:50:20.994Z,7.50
2023-03-03T23:52:47.744Z,7.50
2023-03-03T23:55:14.528Z,7.40
2023-03-03T23:57:41.334Z,7.00
